Time;durP1;ratioP1;P1;durP2;ratioP2;P2;SDS_P1;SDS_P2;PMS_P1;PMS_P2;Temp;Humidity;BMP_temperature;BMP_pressure;BME280_temperature;BME280_humidity;BME280_pressure;Samples;Min_cycle;Max_cycle;Signal;HPM_P1;HPM_P2
2019/07/09 00:01:55;;;;;;;8.2;5.8;;;;;;;;;;;;;
2019/07/09 00:04:21;;;;;;;7.6;6.8;;;;;;;;;;;;;
2019/07/09 00:06:45;;;;;;;7.3;6.2;;;;;;;;;;;;;
2019/07/09 00:09:12;;;;;;;7;6.3;;;;;;;;;;;;;
2019/07/09 00:11:38;;;;;;;7.9;6.3;;;;;;;;;;;;;
2019/07/09 00:14:03;;;;;;;8.8;6.7;;;;;;;;;;;;;
2019/07/09 00:16:29;;;;;;;7;6.4;;;;;;;;;;;;;
2019/07/09 00:18:52;;;;;;;7.1;6.4;;;;;;;;;;;;;
2019/07/09 00:21:21;;;;;;;9;6.2;;;;;;;;;;;;;
2019/07/09 00:23:45;;;;;;;8.4;6.4;;;;;;;;;;;;;
2019/07/09 00:26:09;;;;;;;7.7;6.4;;;;;;;;;;;;;
2019/07/09 00:28:34;;;;;;;7.5;6;;;;;;;;;;;;;
2019/07/09 00:31:01;;;;;;;9.3;6.2;;;;;;;;;;;;;
2019/07/09 00:33:24;;;;;;;6.9;6;;;;;;;;;;;;;
2019/07/09 00:35:51;;;;;;;9;6.8;;;;;;;;;;;;;
2019/07/09 00:38:16;;;;;;;7.1;6.5;;;;;;;;;;;;;
2019/07/09 00:40:43;;;;;;;8.6;7;;;;;;;;;;;;;
2019/07/09 00:43:12;;;;;;;9.7;7.3;;;;;;;;;;;;;
2019/07/09 00:45:39;;;;;;;8;6.8;;;;;;;;;;;;;
2019/07/09 00:48:02;;;;;;;7.6;6.5;;;;;;;;;;;;;
2019/07/09 00:50:28;;;;;;;7.5;5.9;;;;;;;;;;;;;
2019/07/09 00:52:55;;;;;;;7.7;6.3;;;;;;;;;;;;;
2019/07/09 00:55:21;;;;;;;7.1;5.8;;;;;;;;;;;;;
2019/07/09 00:57:46;;;;;;;9;6;;;;;;;;;;;;;
2019/07/09 01:00:14;;;;;;;8.2;6.1;;;;;;;;;;;;;
2019/07/09 01:02:39;;;;;;;8.3;6.4;;;;;;;;;;;;;
2019/07/09 01:05:05;;;;;;;7.8;6.6;;;;;;;;;;;;;
2019/07/09 01:07:31;;;;;;;7.2;6;;;;;;;;;;;;;
2019/07/09 01:09:54;;;;;;;8.7;6;;;;;;;;;;;;;
2019/07/09 01:12:19;;;;;;;8.9;7.1;;;;;;;;;;;;;
2019/07/09 01:14:45;;;;;;;8.3;6.4;;;;;;;;;;;;;
2019/07/09 01:17:10;;;;;;;7.6;6.9;;;;;;;;;;;;;
2019/07/09 01:19:35;;;;;;;8.7;7.3;;;;;;;;;;;;;
2019/07/09 01:22:00;;;;;;;8.3;7.2;;;;;;;;;;;;;
2019/07/09 01:24:25;;;;;;;9;6.7;;;;;;;;;;;;;
2019/07/09 01:26:53;;;;;;;10;6.7;;;;;;;;;;;;;
2019/07/09 01:29:16;;;;;;;8.8;6.4;;;;;;;;;;;;;
2019/07/09 01:31:44;;;;;;;11;7.5;;;;;;;;;;;;;
2019/07/09 01:34:05;;;;;;;8.9;7.2;;;;;;;;;;;;;
2019/07/09 01:36:34;;;;;;;8.2;7.2;;;;;;;;;;;;;
2019/07/09 01:39:02;;;;;;;8.1;6.9;;;;;;;;;;;;;
2019/07/09 01:43:54;;;;;;;8.5;7.5;;;;;;;;;;;;;
2019/07/09 01:46:17;;;;;;;8.7;7.5;;;;;;;;;;;;;
2019/07/09 01:48:48;;;;;;;8.4;7.6;;;;;;;;;;;;;
2019/07/09 01:51:11;;;;;;;10;7.1;;;;;;;;;;;;;
2019/07/09 01:53:48;;;;;;;10.4;8;;;;;;;;;;;;;
2019/07/09 01:56:07;;;;;;;10.8;7.3;;;;;;;;;;;;;
2019/07/09 01:58:34;;;;;;;8.7;7.8;;;;;;;;;;;;;
2019/07/09 02:00:56;;;;;;;10.2;7.7;;;;;;;;;;;;;
2019/07/09 02:03:21;;;;;;;9.3;7.4;;;;;;;;;;;;;
2019/07/09 02:05:47;;;;;;;7.9;7.1;;;;;;;;;;;;;
2019/07/09 02:08:11;;;;;;;8.6;7.2;;;;;;;;;;;;;
2019/07/09 02:10:37;;;;;;;8.2;7.4;;;;;;;;;;;;;
2019/07/09 02:13:03;;;;;;;8;6.5;;;;;;;;;;;;;
2019/07/09 02:15:33;;;;;;;8.7;6.5;;;;;;;;;;;;;
2019/07/09 02:17:54;;;;;;;8.7;7.9;;;;;;;;;;;;;
2019/07/09 02:20:19;;;;;;;8.3;7.2;;;;;;;;;;;;;
2019/07/09 02:22:46;;;;;;;13.5;11.1;;;;;;;;;;;;;
2019/07/09 02:25:13;;;;;;;15;13.4;;;;;;;;;;;;;
2019/07/09 02:27:34;;;;;;;15.1;13.5;;;;;;;;;;;;;
2019/07/09 02:30:09;;;;;;;17.4;15.3;;;;;;;;;;;;;
2019/07/09 02:32:27;;;;;;;18.4;16;;;;;;;;;;;;;
2019/07/09 02:34:51;;;;;;;19.3;17.3;;;;;;;;;;;;;
2019/07/09 02:37:18;;;;;;;20.8;18.7;;;;;;;;;;;;;
2019/07/09 02:39:45;;;;;;;24.4;19;;;;;;;;;;;;;
2019/07/09 02:42:10;;;;;;;23.1;19.2;;;;;;;;;;;;;
2019/07/09 02:44:35;;;;;;;21.5;19.2;;;;;;;;;;;;;
2019/07/09 02:46:58;;;;;;;24.8;19.3;;;;;;;;;;;;;
2019/07/09 02:49:26;;;;;;;23.8;20.1;;;;;;;;;;;;;
2019/07/09 02:51:53;;;;;;;21.8;19.5;;;;;;;;;;;;;
2019/07/09 02:54:14;;;;;;;22.5;19.9;;;;;;;;;;;;;
2019/07/09 02:56:39;;;;;;;22.5;18;;;;;;;;;;;;;
2019/07/09 02:59:07;;;;;;;22.4;17.8;;;;;;;;;;;;;
2019/07/09 03:01:31;;;;;;;18.7;16.1;;;;;;;;;;;;;
2019/07/09 03:03:55;;;;;;;16.2;14.5;;;;;;;;;;;;;
2019/07/09 03:06:18;;;;;;;20.6;14.3;;;;;;;;;;;;;
2019/07/09 03:08:44;;;;;;;16.9;13.3;;;;;;;;;;;;;
2019/07/09 03:11:10;;;;;;;16;12.7;;;;;;;;;;;;;
2019/07/09 03:13:37;;;;;;;13.9;12;;;;;;;;;;;;;
2019/07/09 03:16:06;;;;;;;14.3;11.6;;;;;;;;;;;;;
2019/07/09 03:18:30;;;;;;;14.7;10.4;;;;;;;;;;;;;
2019/07/09 03:20:56;;;;;;;12.7;9.8;;;;;;;;;;;;;
2019/07/09 03:23:20;;;;;;;11.2;9.4;;;;;;;;;;;;;
2019/07/09 03:25:47;;;;;;;12.6;9.2;;;;;;;;;;;;;
2019/07/09 03:28:12;;;;;;;13.4;9;;;;;;;;;;;;;
2019/07/09 03:30:36;;;;;;;11.8;9.2;;;;;;;;;;;;;
2019/07/09 03:33:01;;;;;;;15.9;9.4;;;;;;;;;;;;;
2019/07/09 03:35:33;;;;;;;11.9;8.9;;;;;;;;;;;;;
2019/07/09 03:37:57;;;;;;;10.9;8.5;;;;;;;;;;;;;
2019/07/09 03:40:24;;;;;;;13.2;8.5;;;;;;;;;;;;;
2019/07/09 03:42:47;;;;;;;11.4;8.3;;;;;;;;;;;;;
2019/07/09 03:45:11;;;;;;;11.5;8.5;;;;;;;;;;;;;
2019/07/09 03:47:37;;;;;;;10.7;8.3;;;;;;;;;;;;;
2019/07/09 03:50:04;;;;;;;10.2;8.4;;;;;;;;;;;;;
2019/07/09 03:52:27;;;;;;;12.8;8.8;;;;;;;;;;;;;
2019/07/09 03:54:53;;;;;;;10.7;8.1;;;;;;;;;;;;;
2019/07/09 03:57:21;;;;;;;14.7;8.5;;;;;;;;;;;;;
2019/07/09 03:59:45;;;;;;;11.8;8.1;;;;;;;;;;;;;
2019/07/09 04:08:49;;;;;;;12.7;7.7;;;;;;;14.83;79.52832;938.8324;;;;
2019/07/09 04:11:13;;;;;;;7.9;7;;;;;;;14.78;78.62012;938.8549;;;;
2019/07/09 04:13:44;;;;;;;10.6;7.1;;;;;;;14.83;79.35547;938.7299;;;;
2019/07/09 04:16:10;;;;;;;11.5;6.9;;;;;;;14.82;78.51367;938.8412;;;;
2019/07/09 04:18:42;;;;;;;10;7;;;;;;;14.87;78.52148;938.9515;;;;
2019/07/09 04:21:13;;;;;;;11.6;6.9;;;;;;;15.01;77.72852;938.9659;;;;
2019/07/09 04:23:38;;;;;;;10.1;7.3;;;;;;;15.14;78.13281;938.9942;;;;
2019/07/09 04:26:09;;;;;;;12.5;6.5;;;;;;;14.98;77.8623;938.8964;;;;
2019/07/09 04:28:43;;;;;;;11;6.9;;;;;;;14.85;78.84277;938.9405;;;;
2019/07/09 04:31:10;;;;;;;8.3;6.3;;;;;;;14.99;77.85156;938.9725;;;;
2019/07/09 04:33:37;;;;;;;12.8;7.2;;;;;;;14.95;79.37793;938.9896;;;;
2019/07/09 04:36:05;;;;;;;13;6.4;;;;;;;14.85;78.04688;938.9869;;;;
2019/07/09 04:38:35;;;;;;;12.5;6.9;;;;;;;15.19;78.94922;939.0148;;;;
2019/07/09 04:41:11;;;;;;;10.7;6.5;;;;;;;15.26;78.30469;939.0153;;;;
2019/07/09 04:43:35;;;;;;;8.6;6.4;;;;;;;15.31;78.80859;939.0013;;;;
2019/07/09 04:46:11;;;;;;;10.8;6.3;;;;;;;15.22;79.10449;938.9041;;;;
2019/07/09 04:48:41;;;;;;;8.2;5.8;;;;;;;15.1;78.24023;938.9384;;;;
2019/07/09 04:51:10;;;;;;;7.9;6.2;;;;;;;15.09;77.11816;938.8808;;;;
2019/07/09 04:53:41;;;;;;;6.6;5.9;;;;;;;15.25;77.45801;938.9312;;;;
2019/07/09 04:56:08;;;;;;;11;6.2;;;;;;;15.26;79.18164;938.9897;;;;
2019/07/09 04:58:35;;;;;;;11.1;6;;;;;;;15.28;78.16699;939.0008;;;;
2019/07/09 05:01:00;;;;;;;10.5;6.3;;;;;;;15.3;77.27051;938.9942;;;;
2019/07/09 05:03:32;;;;;;;12.2;6.3;;;;;;;15.44;76.30273;938.9573;;;;
2019/07/09 05:05:55;;;;;;;13;6.7;;;;;;;15.46;76.95215;938.9892;;;;
2019/07/09 05:08:19;;;;;;;8.3;6;;;;;;;15.26;76.91895;939.0065;;;;
2019/07/09 05:10:50;;;;;;;15.3;5.8;;;;;;;15.25;76.47754;939.0162;;;;
2019/07/09 05:13:22;;;;;;;9;6.4;;;;;;;15.44;76.54492;939.06;;;;
2019/07/09 05:15:53;;;;;;;14.8;9;;;;;;;15.48;76.7959;939.0203;;;;
2019/07/09 05:18:17;;;;;;;10.5;7.1;;;;;;;15.52;77.64648;939.0416;;;;
2019/07/09 05:20:48;;;;;;;14.4;8.6;;;;;;;15.32;77.11328;939.0815;;;;
2019/07/09 05:23:18;;;;;;;13.6;11.1;;;;;;;15.19;77.92188;939.0139;;;;
2019/07/09 05:25:45;;;;;;;15.2;8.7;;;;;;;15.43;78.66797;939.052;;;;
2019/07/09 05:28:18;;;;;;;9.4;6.7;;;;;;;15.66;78.21191;939.0226;;;;
2019/07/09 05:30:41;;;;;;;10;6;;;;;;;15.79;76.71094;939.0592;;;;
2019/07/09 05:33:10;;;;;;;9.6;5.7;;;;;;;15.79;77;939.0414;;;;
2019/07/09 05:35:36;;;;;;;9.3;5.4;;;;;;;15.8;77.27832;938.9506;;;;
2019/07/09 05:38:10;;;;;;;13.6;5.3;;;;;;;15.6;76.80469;939.0541;;;;
2019/07/09 05:40:28;;;;;;;8.6;5;;;;;;;15.35;75.6748;939.0948;;;;
2019/07/09 05:42:54;;;;;;;6.9;5.4;;;;;;;15.4;75.28027;938.9871;;;;
2019/07/09 05:45:19;;;;;;;9.8;5.6;;;;;;;15.36;77.52539;939.0338;;;;
2019/07/09 05:47:47;;;;;;;8.3;5.3;;;;;;;15.37;76.76465;939.0161;;;;
2019/07/09 05:50:18;;;;;;;9.8;5.7;;;;;;;15.57;77.74707;939.0276;;;;
2019/07/09 05:52:53;;;;;;;9.8;5.7;;;;;;;15.62;77.0293;939.035;;;;
2019/07/09 05:55:18;;;;;;;8.2;4.8;;;;;;;15.64;74.8584;939.0333;;;;
2019/07/09 05:57:44;;;;;;;8.7;5.1;;;;;;;15.65;75.80859;939.0147;;;;
2019/07/09 06:00:22;;;;;;;6.7;4.8;;;;;;;15.51;75.54102;939.0048;;;;
2019/07/09 06:02:48;;;;;;;9.6;4.7;;;;;;;15.49;76.91309;939.0965;;;;
2019/07/09 06:05:13;;;;;;;7.5;5.1;;;;;;;15.38;76.82422;939.0955;;;;
2019/07/09 06:07:43;;;;;;;8;5.4;;;;;;;15.55;78.10156;939.1241;;;;
2019/07/09 06:10:11;;;;;;;10.3;5.5;;;;;;;15.63;75.09961;939.1714;;;;
2019/07/09 06:12:35;;;;;;;8.9;5.4;;;;;;;15.54;77.68457;939.035;;;;
2019/07/09 06:15:01;;;;;;;6.9;4.5;;;;;;;15.32;76.57031;939.043;;;;
2019/07/09 06:17:31;;;;;;;9.9;4.6;;;;;;;15.4;76.08887;939.0728;;;;
2019/07/09 06:19:57;;;;;;;8.2;4.3;;;;;;;15.62;75.19238;939.0823;;;;
2019/07/09 06:22:29;;;;;;;7.9;4.8;;;;;;;15.7;77.1123;939.0815;;;;
2019/07/09 06:24:52;;;;;;;10.1;5.2;;;;;;;15.57;76.26855;939.1006;;;;
2019/07/09 06:27:22;;;;;;;7.1;4.3;;;;;;;15.47;76.15918;939.1287;;;;
2019/07/09 06:29:44;;;;;;;8;4.9;;;;;;;15.46;75.37207;939.1384;;;;
2019/07/09 06:32:13;;;;;;;7.6;4.3;;;;;;;15.87;74.04395;939.0973;;;;
2019/07/09 06:34:37;;;;;;;8;4.3;;;;;;;15.7;74.24707;939.1074;;;;
2019/07/09 06:37:10;;;;;;;7.2;4.5;;;;;;;15.65;75.94727;939.1135;;;;
2019/07/09 06:39:42;;;;;;;9;4.8;;;;;;;15.86;76.31934;939.1199;;;;
2019/07/09 06:42:07;;;;;;;5.8;4.3;;;;;;;15.84;75.14844;939.173;;;;
2019/07/09 06:44:44;;;;;;;13.3;4.3;;;;;;;15.72;75;939.3111;;;;
2019/07/09 06:47:03;;;;;;;9;4.4;;;;;;;15.69;76.41602;939.3145;;;;
2019/07/09 06:49:28;;;;;;;7;4.6;;;;;;;15.69;76.18457;939.3531;;;;
2019/07/09 06:51:56;;;;;;;6.4;4.3;;;;;;;15.75;75.33984;939.3165;;;;
2019/07/09 06:54:21;;;;;;;7.8;4.5;;;;;;;15.65;75.93652;939.3061;;;;
2019/07/09 06:56:50;;;;;;;8.9;4.4;;;;;;;15.71;75.39063;939.3594;;;;
2019/07/09 06:59:18;;;;;;;8.3;4.2;;;;;;;15.64;75.56445;939.4482;;;;
2019/07/09 07:01:45;;;;;;;7.8;4.2;;;;;;;15.68;74.57715;939.435;;;;
2019/07/09 07:04:13;;;;;;;10.7;4.4;;;;;;;15.72;76.19141;939.4733;;;;
2019/07/09 07:06:38;;;;;;;6.8;3.8;;;;;;;15.78;72.84961;939.4149;;;;
2019/07/09 07:09:09;;;;;;;6.6;3.9;;;;;;;15.84;73.05469;939.4219;;;;
2019/07/09 07:11:42;;;;;;;9.6;4;;;;;;;15.76;72.65039;939.4344;;;;
2019/07/09 07:14:13;;;;;;;8.7;3.8;;;;;;;15.78;72.62988;939.4623;;;;
2019/07/09 07:16:46;;;;;;;8.7;3.9;;;;;;;15.79;75.10449;939.4189;;;;
2019/07/09 07:19:21;;;;;;;6.6;4;;;;;;;15.68;75.79102;939.4953;;;;
2019/07/09 07:21:49;;;;;;;6.2;3.6;;;;;;;15.61;73.70996;939.5413;;;;
2019/07/09 07:24:15;;;;;;;9.2;3.9;;;;;;;15.58;75.91211;939.497;;;;
2019/07/09 07:26:41;;;;;;;6.4;3.6;;;;;;;15.71;73.46094;939.5006;;;;
2019/07/09 07:29:11;;;;;;;8.2;4.3;;;;;;;15.69;75.5957;939.5023;;;;
2019/07/09 07:31:43;;;;;;;8.4;4.2;;;;;;;15.52;77.35742;939.5168;;;;
2019/07/09 07:34:08;;;;;;;8.1;4;;;;;;;15.46;75.65918;939.5157;;;;
2019/07/09 07:36:35;;;;;;;7.6;3.7;;;;;;;15.67;73.85938;939.4753;;;;
2019/07/09 07:39:07;;;;;;;7.6;3.3;;;;;;;15.74;72.68164;939.5397;;;;
2019/07/09 07:41:39;;;;;;;8.4;3.6;;;;;;;16.01;73.55762;939.4581;;;;
2019/07/09 07:44:10;;;;;;;8.2;3.4;;;;;;;16.07;71.27832;939.4554;;;;
2019/07/09 07:46:44;;;;;;;8.3;3.1;;;;;;;16.15;70.4707;939.3992;;;;
2019/07/09 07:49:21;;;;;;;9.4;3.3;;;;;;;16.32;72.16309;939.3631;;;;
2019/07/09 07:51:52;;;;;;;4;2.8;;;;;;;16.31;70.20801;939.3254;;;;
2019/07/09 07:54:18;;;;;;;5.9;3.4;;;;;;;16.63;71.91211;939.3747;;;;
2019/07/09 07:56:42;;;;;;;7.9;3.2;;;;;;;16.9;70.96191;939.4121;;;;
2019/07/09 07:59:08;;;;;;;5.2;3;;;;;;;16.96;68.28223;939.4603;;;;
2019/07/09 08:01:33;;;;;;;4.8;2.5;;;;;;;17.15;64.46484;939.3052;;;;
2019/07/09 08:04:05;;;;;;;5.4;2.8;;;;;;;17.22;66.42188;939.301;;;;
2019/07/09 08:06:30;;;;;;;6.5;2.8;;;;;;;17.7;64.56738;939.3084;;;;
2019/07/09 08:08:59;;;;;;;4.6;2.5;;;;;;;17.91;63.56543;939.3005;;;;
2019/07/09 08:11:24;;;;;;;4.9;2.8;;;;;;;17.78;61.95703;939.2595;;;;
2019/07/09 08:13:51;;;;;;;5.2;2.8;;;;;;;17.79;63.39844;939.3013;;;;
2019/07/09 08:16:20;;;;;;;6.1;2.9;;;;;;;17.98;65.50293;939.2573;;;;
2019/07/09 08:18:51;;;;;;;10.3;3.2;;;;;;;17.92;62.95215;939.3244;;;;
2019/07/09 08:21:24;;;;;;;6.8;2.7;;;;;;;17.77;64.0918;939.2991;;;;
2019/07/09 08:23:49;;;;;;;6.5;3.2;;;;;;;17.63;67.08789;939.3205;;;;
2019/07/09 08:26:15;;;;;;;7.9;3.3;;;;;;;17.48;67.80859;939.2565;;;;
2019/07/09 08:28:42;;;;;;;6.4;3.3;;;;;;;17.5;62.78613;939.1863;;;;
2019/07/09 08:31:10;;;;;;;8.5;3.3;;;;;;;17.38;64.18457;939.1878;;;;
2019/07/09 08:33:41;;;;;;;9;3.6;;;;;;;17.37;67.02344;939.1976;;;;
2019/07/09 08:36:10;;;;;;;12.1;3.6;;;;;;;17.33;63.8418;939.2014;;;;
2019/07/09 08:38:33;;;;;;;5.3;3.3;;;;;;;17.44;67.67383;939.2402;;;;
2019/07/09 08:40:59;;;;;;;8.7;3.6;;;;;;;17.51;66.44336;939.2706;;;;
2019/07/09 08:43:34;;;;;;;7.6;3.2;;;;;;;17.54;62.53809;939.2242;;;;
2019/07/09 08:46:07;;;;;;;8.1;3.3;;;;;;;17.66;62.31055;939.2404;;;;
2019/07/09 08:48:33;;;;;;;6.4;3.4;;;;;;;17.41;64.05078;939.2525;;;;
2019/07/09 08:51:04;;;;;;;7.1;3.3;;;;;;;17.67;64.98145;939.1998;;;;
2019/07/09 08:53:32;;;;;;;7.3;3.4;;;;;;;17.92;62.99805;939.2391;;;;
2019/07/09 08:56:09;;;;;;;6.7;3.6;;;;;;;18.06;64.89941;939.2562;;;;
2019/07/09 08:58:49;;;;;;;8.9;3.7;;;;;;;18.18;63.23145;939.2073;;;;
2019/07/09 09:01:18;;;;;;;9.9;3.4;;;;;;;17.98;61.18262;939.2058;;;;
2019/07/09 09:03:45;;;;;;;10.3;3.7;;;;;;;18.06;64.35449;939.2473;;;;
2019/07/09 09:06:16;;;;;;;8.6;3.7;;;;;;;18.25;64.20801;939.1981;;;;
2019/07/09 09:08:50;;;;;;;7.3;3.5;;;;;;;18.19;63.3623;939.1756;;;;
2019/07/09 09:11:19;;;;;;;10.5;3.7;;;;;;;18.31;64.69141;939.1399;;;;
2019/07/09 09:13:52;;;;;;;15.3;3.8;;;;;;;18.24;61.5459;939.1564;;;;
2019/07/09 09:16:23;;;;;;;7.3;3.6;;;;;;;17.75;69.99609;939.057;;;;
2019/07/09 09:18:47;;;;;;;22.6;4.2;;;;;;;17.97;65.06152;939.1294;;;;
2019/07/09 09:21:15;;;;;;;14.2;3.7;;;;;;;18.15;64.55273;939.0603;;;;
2019/07/09 09:23:43;;;;;;;30.6;4.5;;;;;;;18.27;65.59375;939.0415;;;;
2019/07/09 09:26:14;;;;;;;13.9;3.6;;;;;;;18.42;63.62891;939.0485;;;;
2019/07/09 09:28:43;;;;;;;7.9;3.3;;;;;;;18.53;62.80664;939.0867;;;;
2019/07/09 09:31:13;;;;;;;6.8;3.2;;;;;;;18.54;63.12207;939.0372;;;;
2019/07/09 09:33:48;;;;;;;11.8;3.7;;;;;;;18.24;62.95215;939.0532;;;;
2019/07/09 09:36:12;;;;;;;9.5;3.7;;;;;;;18.01;65.10059;939.0175;;;;
2019/07/09 09:38:38;;;;;;;6.7;3.4;;;;;;;18.11;64.74512;939.0433;;;;
2019/07/09 09:41:13;;;;;;;5.6;3;;;;;;;18.25;64.2666;939.1426;;;;
2019/07/09 09:43:40;;;;;;;8.4;3.2;;;;;;;18.46;62.58594;939.1172;;;;
2019/07/09 09:46:06;;;;;;;9.1;3.3;;;;;;;18.62;62.43652;939.1053;;;;
2019/07/09 09:48:36;;;;;;;7.6;2.9;;;;;;;18.88;59.26074;939.1119;;;;
2019/07/09 09:50:59;;;;;;;7.8;3.1;;;;;;;18.99;59.80957;939.0853;;;;
2019/07/09 09:53:31;;;;;;;5;3;;;;;;;19.07;59.81055;939.0531;;;;
2019/07/09 09:55:59;;;;;;;5.4;3.2;;;;;;;19.07;61.92871;939.0491;;;;
2019/07/09 09:58:27;;;;;;;7.7;3.4;;;;;;;18.93;63.61914;939.0931;;;;
2019/07/09 10:00:59;;;;;;;5;3.4;;;;;;;19.05;62.18164;939.0778;;;;
2019/07/09 10:03:32;;;;;;;10.1;3.5;;;;;;;19.14;62.26465;939.1178;;;;
2019/07/09 10:05:59;;;;;;;6.5;3.4;;;;;;;18.99;61.23047;939.0893;;;;
2019/07/09 10:08:22;;;;;;;5.9;3.5;;;;;;;18.93;61.00293;939.118;;;;
2019/07/09 10:10:51;;;;;;;5.9;3.5;;;;;;;18.68;61.77051;939.1238;;;;
2019/07/09 10:13:25;;;;;;;7.6;3.9;;;;;;;18.61;61.53809;939.1149;;;;
2019/07/09 10:15:56;;;;;;;6.2;3.7;;;;;;;18.4;60.58008;939.1364;;;;
2019/07/09 10:18:26;;;;;;;8.4;3.8;;;;;;;18.36;62.9668;939.1591;;;;
2019/07/09 10:20:57;;;;;;;9.5;4;;;;;;;18.26;62.47656;939.1892;;;;
2019/07/09 10:23:31;;;;;;;9.3;3.6;;;;;;;18.07;62.83398;939.1779;;;;
2019/07/09 10:26:09;;;;;;;6.9;3.6;;;;;;;18.2;62.07422;939.2213;;;;
2019/07/09 10:28:36;;;;;;;6;3.5;;;;;;;18.15;63.4834;939.1456;;;;
2019/07/09 10:31:12;;;;;;;8.6;3.9;;;;;;;18.13;62.88867;939.2734;;;;
2019/07/09 10:33:37;;;;;;;5.4;3.8;;;;;;;18.06;65.42188;939.3038;;;;
2019/07/09 10:36:10;;;;;;;5.6;3.8;;;;;;;18.04;63.62012;939.2967;;;;
2019/07/09 10:38:44;;;;;;;6.4;3.8;;;;;;;17.85;63.17383;939.2346;;;;
2019/07/09 10:41:10;;;;;;;5.8;3.8;;;;;;;17.71;63.49121;939.2381;;;;
2019/07/09 10:43:39;;;;;;;10.2;3.8;;;;;;;17.66;64.92188;939.3049;;;;
2019/07/09 10:46:10;;;;;;;5.4;3.5;;;;;;;17.68;66.71191;939.2983;;;;
2019/07/09 10:48:40;;;;;;;7;3.6;;;;;;;17.67;66.67578;939.3931;;;;
2019/07/09 10:56:12;;;;;;;7.8;3.4;;;;;;;17.88;65.24414;939.317;;;;
2019/07/09 10:58:47;;;;;;;6.1;3.6;;;;;;;17.82;62.7168;939.354;;;;
2019/07/09 11:01:14;;;;;;;5.2;3.6;;;;;;;17.86;65.34766;939.3358;;;;
2019/07/09 11:03:40;;;;;;;5.9;3.7;;;;;;;17.69;65.69238;939.3272;;;;
2019/07/09 11:06:05;;;;;;;8.2;3.7;;;;;;;17.64;66.97363;939.3582;;;;
2019/07/09 11:08:38;;;;;;;7.6;3.6;;;;;;;17.83;66.57324;939.2622;;;;
2019/07/09 11:11:10;;;;;;;6.9;3.6;;;;;;;17.92;64.14746;939.3284;;;;
2019/07/09 11:13:42;;;;;;;8.7;3.7;;;;;;;18.01;61.65234;939.3348;;;;
2019/07/09 11:16:08;;;;;;;9.8;3.7;;;;;;;18.08;63.54395;939.3992;;;;
2019/07/09 11:18:42;;;;;;;11.8;3.8;;;;;;;17.94;66.9375;939.4127;;;;
2019/07/09 11:21:07;;;;;;;7.2;3.5;;;;;;;17.94;67.77344;939.4384;;;;
2019/07/09 11:23:34;;;;;;;6.2;3.6;;;;;;;18.21;65.11914;939.4655;;;;
2019/07/09 11:26:00;;;;;;;7.8;3.7;;;;;;;18.38;66.00488;939.4449;;;;
2019/07/09 11:28:30;;;;;;;7.4;3.3;;;;;;;18.35;64.12988;939.4438;;;;
2019/07/09 11:31:00;;;;;;;6.6;3.8;;;;;;;18.31;62.61035;939.4881;;;;
2019/07/09 11:33:28;;;;;;;7.8;3.9;;;;;;;18.25;65.84668;939.4392;;;;
2019/07/09 11:36:07;;;;;;;9.2;3.7;;;;;;;18.39;64.77441;939.4172;;;;
2019/07/09 11:38:38;;;;;;;14.7;4.3;;;;;;;18.34;65.8125;939.4328;;;;
2019/07/09 11:41:15;;;;;;;6;3.7;;;;;;;18.53;62.55078;939.3786;;;;
2019/07/09 11:43:38;;;;;;;6.8;3.9;;;;;;;18.61;63.64355;939.4286;;;;
2019/07/09 11:46:10;;;;;;;7.1;3.6;;;;;;;18.76;63.6416;939.4586;;;;
2019/07/09 11:48:35;;;;;;;8.6;3.8;;;;;;;18.82;66.19922;939.4464;;;;
2019/07/09 11:50:59;;;;;;;6.6;3.6;;;;;;;18.84;64.16602;939.3789;;;;
2019/07/09 11:53:37;;;;;;;7.3;3.4;;;;;;;18.93;61.43164;939.4239;;;;
2019/07/09 11:56:04;;;;;;;7.7;3.2;;;;;;;18.33;60.75488;939.399;;;;
2019/07/09 11:58:37;;;;;;;7.6;3.6;;;;;;;18.09;62.61621;939.3853;;;;
2019/07/09 12:01:10;;;;;;;7.7;3.2;;;;;;;17.94;62.87305;939.4038;;;;
2019/07/09 12:03:41;;;;;;;8.1;3.2;;;;;;;18;64.35547;939.3367;;;;
2019/07/09 12:06:17;;;;;;;11.3;3.2;;;;;;;18.15;65.12207;939.4691;;;;
2019/07/09 12:08:50;;;;;;;8.6;3.7;;;;;;;18.44;65.67578;939.4336;;;;
2019/07/09 12:11:16;;;;;;;6.6;3.4;;;;;;;18.43;65.38379;939.3523;;;;
2019/07/09 12:13:42;;;;;;;9.1;3.5;;;;;;;17.93;64.21875;939.3452;;;;
2019/07/09 12:16:16;;;;;;;8.9;3.6;;;;;;;17.98;66.64258;939.3684;;;;
2019/07/09 12:18:47;;;;;;;8.3;3.7;;;;;;;18.13;65.18848;939.4411;;;;
2019/07/09 12:21:24;;;;;;;7.4;4.1;;;;;;;18.2;68.20898;939.4197;;;;
2019/07/09 12:23:56;;;;;;;9.4;3.4;;;;;;;18.17;64.3125;939.3889;;;;
2019/07/09 12:26:22;;;;;;;7;3.6;;;;;;;18.17;64.87012;939.3709;;;;
2019/07/09 12:28:50;;;;;;;6.6;3.3;;;;;;;18.28;65.6416;939.4007;;;;
2019/07/09 12:31:18;;;;;;;11.1;3.7;;;;;;;18.18;65.43945;939.4177;;;;
2019/07/09 12:33:43;;;;;;;7.8;3.5;;;;;;;18.02;65.60254;939.4202;;;;
2019/07/09 12:36:21;;;;;;;8.5;3.4;;;;;;;18.2;65.47852;939.389;;;;
2019/07/09 12:38:47;;;;;;;7.4;3.5;;;;;;;18.03;65.74316;939.4017;;;;
2019/07/09 12:41:12;;;;;;;7.8;3.3;;;;;;;17.86;66.22852;939.3109;;;;
2019/07/09 12:43:43;;;;;;;8.3;3.5;;;;;;;17.84;66.49316;939.2701;;;;
2019/07/09 12:46:12;;;;;;;10.2;3.8;;;;;;;18.01;67.06445;939.3091;;;;
2019/07/09 12:48:43;;;;;;;9.4;3.9;;;;;;;17.87;65.49805;939.2447;;;;
2019/07/09 12:51:12;;;;;;;7.7;3.8;;;;;;;17.71;66.19531;939.3323;;;;
2019/07/09 12:53:43;;;;;;;7.6;3.6;;;;;;;17.95;67.15918;939.3722;;;;
2019/07/09 12:56:08;;;;;;;8.7;3.8;;;;;;;18.13;66.76855;939.2864;;;;
2019/07/09 12:58:41;;;;;;;7.2;3.6;;;;;;;17.84;65.95898;939.2275;;;;
2019/07/09 13:01:11;;;;;;;7.5;3.9;;;;;;;17.9;66.53613;939.2458;;;;
2019/07/09 13:03:36;;;;;;;11.6;3.7;;;;;;;17.78;66.77344;939.2297;;;;
2019/07/09 13:06:06;;;;;;;6.6;3.5;;;;;;;17.68;66.27148;939.221;;;;
2019/07/09 13:08:31;;;;;;;9.4;3.9;;;;;;;17.61;67.37598;939.2497;;;;
2019/07/09 13:11:04;;;;;;;8.6;3.9;;;;;;;17.51;66.89453;939.2755;;;;
2019/07/09 13:13:37;;;;;;;9.1;4.1;;;;;;;17.45;66.50391;939.2136;;;;
2019/07/09 13:16:02;;;;;;;8.6;4;;;;;;;17.54;67.3877;939.2203;;;;
2019/07/09 13:18:34;;;;;;;7.2;3.6;;;;;;;17.76;66.69141;939.2019;;;;
2019/07/09 13:21:03;;;;;;;6;3.6;;;;;;;17.64;66.77637;939.2036;;;;
2019/07/09 13:23:32;;;;;;;7.8;3.8;;;;;;;17.74;67.75488;939.1571;;;;
2019/07/09 13:26:03;;;;;;;8.9;3.6;;;;;;;18;67.22559;939.2158;;;;
2019/07/09 13:28:34;;;;;;;7.4;3.4;;;;;;;18.03;67.17383;939.1519;;;;
2019/07/09 13:31:02;;;;;;;10;4.2;;;;;;;17.54;66.55273;939.1509;;;;
2019/07/09 13:33:31;;;;;;;5.8;3.9;;;;;;;17.52;67.02344;939.1022;;;;
2019/07/09 13:35:58;;;;;;;9.1;3.8;;;;;;;17.51;67.5459;939.1458;;;;
2019/07/09 13:38:30;;;;;;;6.5;3.6;;;;;;;17.55;67.60938;939.1114;;;;
2019/07/09 13:41:02;;;;;;;5.7;3.3;;;;;;;17.54;67.16699;939.1163;;;;
2019/07/09 13:43:23;;;;;;;8;3.3;;;;;;;17.72;65.68457;939.1083;;;;
2019/07/09 13:45:51;;;;;;;7.7;3.6;;;;;;;17.81;66.2207;939.115;;;;
2019/07/09 13:48:18;;;;;;;7.5;3.2;;;;;;;17.98;64.89941;939.0471;;;;
2019/07/09 13:50:44;;;;;;;8.7;3.6;;;;;;;18;63.77637;939.0393;;;;
2019/07/09 13:53:16;;;;;;;7.5;3.4;;;;;;;18.32;63.33398;939.0656;;;;
2019/07/09 13:55:36;;;;;;;8.1;3.2;;;;;;;18.68;62.1416;939.0939;;;;
2019/07/09 13:58:07;;;;;;;6.2;3.2;;;;;;;18.99;65.29395;939.0586;;;;
2019/07/09 14:00:40;;;;;;;7.8;3;;;;;;;18.92;61.29102;938.9819;;;;
2019/07/09 14:03:04;;;;;;;6;3;;;;;;;18.9;62.12695;939.0056;;;;
2019/07/09 14:05:28;;;;;;;8.4;3.1;;;;;;;19.19;63.35547;938.9431;;;;
2019/07/09 14:08:02;;;;;;;7.3;3.1;;;;;;;19.37;63.91602;939.0589;;;;
2019/07/09 14:10:29;;;;;;;7.2;3.3;;;;;;;19.5;59.79785;938.9648;;;;
2019/07/09 14:16:24;;;;;;;9.6;3;;;;;;;19.66;62.2793;938.9228;;;;
2019/07/09 14:23:48;;;;;;;9.2;2.6;;;;;;;20.25;58.98828;938.911;;;;
2019/07/09 14:26:23;;;;;;;7.1;2.7;;;;;;;20.19;57.27637;938.9009;;;;
2019/07/09 14:28:42;;;;;;;8.9;2.5;;;;;;;20.19;59.16699;938.9099;;;;
2019/07/09 14:31:18;;;;;;;7.6;2.5;;;;;;;20.34;59.36328;938.8859;;;;
2019/07/09 14:33:47;;;;;;;7.7;2.6;;;;;;;20.39;58.19043;938.9266;;;;
2019/07/09 14:36:15;;;;;;;8.2;2.7;;;;;;;20.29;58.58496;938.9179;;;;
2019/07/09 14:38:44;;;;;;;8.1;2.6;;;;;;;20.05;57.58594;938.8594;;;;
2019/07/09 14:41:08;;;;;;;6.4;2.5;;;;;;;19.97;60.24707;938.904;;;;
2019/07/09 14:43:34;;;;;;;10;2.7;;;;;;;20.16;62.10547;938.9;;;;
2019/07/09 14:46:08;;;;;;;5.5;2.5;;;;;;;20.15;57.62207;938.9189;;;;
2019/07/09 14:48:41;;;;;;;11.1;2.8;;;;;;;19.87;58.44824;938.9816;;;;
2019/07/09 14:51:09;;;;;;;8.5;2.5;;;;;;;20.1;57.97656;939.0255;;;;
2019/07/09 14:53:39;;;;;;;7.3;2.6;;;;;;;20.4;58.35449;939.0331;;;;
2019/07/09 14:56:10;;;;;;;7.8;2.5;;;;;;;20.42;57.30664;938.9526;;;;
2019/07/09 14:58:43;;;;;;;6.9;2.6;;;;;;;20.56;57.93262;938.8519;;;;
2019/07/09 15:01:10;;;;;;;6.2;2.6;;;;;;;20.78;54.73535;938.8742;;;;
2019/07/09 15:03:35;;;;;;;5.9;2.6;;;;;;;20.76;52.85059;938.8694;;;;
2019/07/09 15:06:01;;;;;;;6.7;2.6;;;;;;;20.67;53.47168;938.8419;;;;
2019/07/09 15:08:32;;;;;;;6.1;2.6;;;;;;;20.65;55.11621;938.8748;;;;
2019/07/09 15:11:01;;;;;;;5.9;2.8;;;;;;;20.37;57.13672;938.8251;;;;
2019/07/09 15:13:27;;;;;;;6.5;3;;;;;;;20.29;54.125;938.8014;;;;
2019/07/09 15:15:50;;;;;;;9.1;3;;;;;;;20.47;55;938.6959;;;;
2019/07/09 15:18:19;;;;;;;6.6;2.8;;;;;;;20.3;54.78125;938.7009;;;;
2019/07/09 15:20:42;;;;;;;8.4;2.5;;;;;;;20.52;56.41992;938.6639;;;;
2019/07/09 15:23:07;;;;;;;8.5;2.8;;;;;;;20.48;56.07715;938.5864;;;;
2019/07/09 15:25:32;;;;;;;4.8;2.7;;;;;;;20.63;56.06055;938.615;;;;
2019/07/09 15:28:04;;;;;;;8.4;2.7;;;;;;;20.68;55.98438;938.6556;;;;
2019/07/09 15:30:36;;;;;;;8;3;;;;;;;20.67;56.32324;938.6397;;;;
2019/07/09 15:33:08;;;;;;;7.8;2.5;;;;;;;20.61;55.56641;938.6217;;;;
2019/07/09 15:35:33;;;;;;;6.4;2.7;;;;;;;20.52;55.94141;938.5295;;;;
2019/07/09 15:38:08;;;;;;;6.3;2.7;;;;;;;20.27;57.14648;938.4979;;;;
2019/07/09 15:40:35;;;;;;;6.4;2.8;;;;;;;20.26;56.48047;938.4133;;;;
2019/07/09 15:43:03;;;;;;;8.6;2.9;;;;;;;20.26;55.20898;938.4044;;;;
2019/07/09 15:45:34;;;;;;;4.9;2.8;;;;;;;20.38;57.8623;938.4487;;;;
2019/07/09 15:47:58;;;;;;;7.3;2.7;;;;;;;20.31;56.3125;938.4321;;;;
2019/07/09 15:50:29;;;;;;;5;2.5;;;;;;;20.28;56.63574;938.4362;;;;
2019/07/09 15:53:00;;;;;;;8.6;2.7;;;;;;;20.33;56.0459;938.4042;;;;
2019/07/09 15:55:48;;;;;;;8.2;2.7;;;;;;;20.39;55.48145;938.3959;;;;
2019/07/09 15:58:17;;;;;;;8.5;2.4;;;;;;;20.22;57.58301;938.4271;;;;
2019/07/09 16:00:53;;;;;;;7.2;2.6;;;;;;;20.35;53.99316;938.3663;;;;
2019/07/09 16:03:29;;;;;;;5.2;2.6;;;;;;;20.45;56.46875;938.3456;;;;
2019/07/09 16:05:57;;;;;;;6.6;2.7;;;;;;;20.26;56.15332;938.2711;;;;